createdAt,value
2017-12-17T00:00:31.290Z,85.09
2017-12-17T00:02:58.340Z,84.78
2017-12-17T00:05:24.774Z,84.55
2017-12-17T00:07:51.210Z,85.00
2017-12-17T00:10:17.645Z,84.61
2017-12-17T00:12:44.079Z,84.31
2017-12-17T00:15:10.513Z,84.37
2017-12-17T00:17:36.880Z,83.87
2017-12-17T00:20:04.099Z,83.86
2017-12-17T00:22:30.534Z,83.91
2017-12-17T00:24:56.901Z,83.50
2017-12-17T00:27:23.273Z,83.43
2017-12-17T00:29:49.634Z,83.83
2017-12-17T00:32:16.170Z,83.71
2017-12-17T00:34:42.606Z,83.53
2017-12-17T00:37:09.756Z,83.51
2017-12-17T00:39:36.191Z,83.61
2017-12-17T00:42:02.727Z,83.32
2017-12-17T00:44:29.163Z,83.23
2017-12-17T00:46:55.597Z,82.72
2017-12-17T00:49:22.031Z,83.03
2017-12-17T00:51:48.568Z,83.04
2017-12-17T00:54:15.618Z,83.18
2017-12-17T00:56:42.053Z,83.12
2017-12-17T00:59:08.488Z,82.89
2017-12-17T01:01:34.989Z,82.31
2017-12-17T01:04:01.356Z,82.67
2017-12-17T01:06:27.791Z,82.74
2017-12-17T01:08:54.328Z,82.74
2017-12-17T01:11:21.377Z,83.29
2017-12-17T01:13:47.811Z,83.41
2017-12-17T01:16:14.454Z,83.63
2017-12-17T01:18:40.886Z,83.58
2017-12-17T01:21:07.423Z,83.68
2017-12-17T01:23:33.859Z,83.58
2017-12-17T01:26:00.293Z,83.59
2017-12-17T01:28:27.445Z,83.97
2017-12-17T01:30:53.980Z,83.85
2017-12-17T01:33:20.417Z,83.74
2017-12-17T01:35:46.851Z,83.99
2017-12-17T01:38:13.285Z,83.44
2017-12-17T01:40:39.822Z,83.52
2017-12-17T01:43:06.256Z,83.21
2017-12-17T01:45:33.396Z,83.43
2017-12-17T01:47:59.843Z,83.86
2017-12-17T01:50:26.354Z,83.67
2017-12-17T01:52:52.796Z,83.72
2017-12-17T01:55:19.250Z,84.28
2017-12-17T01:57:45.583Z,84.59
2017-12-17T02:00:12.119Z,84.29
2017-12-17T02:02:39.098Z,84.05
2017-12-17T02:05:05.500Z,83.83
2017-12-17T02:07:31.935Z,83.57
2017-12-17T02:09:58.369Z,83.51
2017-12-17T02:12:24.911Z,83.71
2017-12-17T02:14:51.340Z,83.78
2017-12-17T02:17:17.776Z,83.62
2017-12-17T02:19:44.857Z,83.32
2017-12-17T02:22:11.361Z,82.54
2017-12-17T02:24:37.899Z,82.67
2017-12-17T02:27:04.333Z,82.77
2017-12-17T02:29:30.768Z,82.82
2017-12-17T02:31:57.305Z,82.92
2017-12-17T02:34:23.740Z,82.24
2017-12-17T02:36:50.882Z,81.97
2017-12-17T02:39:17.325Z,81.85
2017-12-17T02:41:43.863Z,81.21
2017-12-17T02:44:10.306Z,81.72
2017-12-17T02:46:36.733Z,81.82
2017-12-17T02:49:03.168Z,81.68
2017-12-17T02:51:29.603Z,81.43
2017-12-17T02:53:56.753Z,81.51
2017-12-17T02:56:23.187Z,81.74
2017-12-17T02:58:49.520Z,81.38
2017-12-17T03:01:16.057Z,81.44
2017-12-17T03:03:42.492Z,82.10
2017-12-17T03:06:08.855Z,81.91
2017-12-17T03:08:35.258Z,81.97
2017-12-17T03:11:02.431Z,82.10
2017-12-17T03:13:28.846Z,82.58
2017-12-17T03:15:55.280Z,82.49
2017-12-17T03:18:21.713Z,82.88
2017-12-17T03:20:48.241Z,82.91
2017-12-17T03:23:14.789Z,82.98
2017-12-17T03:25:41.226Z,82.81
2017-12-17T03:28:08.376Z,82.79
2017-12-17T03:30:34.841Z,82.38
2017-12-17T03:33:01.226Z,83.10
2017-12-17T03:35:27.576Z,83.18
2017-12-17T03:37:54.012Z,83.37
2017-12-17T03:40:20.448Z,83.28
2017-12-17T03:42:46.882Z,83.60
2017-12-17T03:45:14.012Z,83.58
2017-12-17T03:47:40.468Z,83.64
2017-12-17T03:50:06.833Z,83.73
2017-12-17T03:52:33.234Z,83.83
2017-12-17T03:54:59.567Z,83.64
2017-12-17T03:57:26.000Z,83.57
2017-12-17T03:59:52.434Z,83.57
2017-12-17T04:02:19.586Z,82.73
2017-12-17T04:04:46.022Z,82.91
2017-12-17T04:07:12.454Z,83.10
2017-12-17T04:09:38.824Z,83.57
2017-12-17T04:12:05.325Z,83.61
2017-12-17T04:14:31.760Z,83.62
2017-12-17T04:16:58.297Z,83.54
2017-12-17T04:19:25.346Z,83.59
2017-12-17T04:21:51.882Z,83.48
2017-12-17T04:24:18.317Z,83.49
2017-12-17T04:26:44.751Z,83.59
2017-12-17T04:29:11.187Z,83.59
2017-12-17T04:31:37.723Z,83.53
2017-12-17T04:34:04.158Z,83.25
2017-12-17T04:36:31.309Z,82.93
2017-12-17T04:38:57.744Z,82.82
2017-12-17T04:41:24.283Z,82.97
2017-12-17T04:43:50.715Z,83.25
2017-12-17T04:46:17.152Z,83.29
2017-12-17T04:48:43.587Z,82.85
2017-12-17T04:51:10.101Z,83.25
2017-12-17T04:53:37.243Z,83.83
2017-12-17T04:56:03.685Z,83.97
2017-12-17T04:58:30.128Z,84.32
2017-12-17T05:00:56.679Z,84.47
2017-12-17T05:03:23.116Z,84.70
2017-12-17T05:05:49.561Z,84.71
2017-12-17T05:08:16.086Z,84.68
2017-12-17T05:10:43.139Z,84.58
2017-12-17T05:13:09.673Z,84.73
2017-12-17T05:15:36.209Z,84.63
2017-12-17T05:18:02.644Z,84.36
2017-12-17T05:20:29.156Z,84.05
2017-12-17T05:22:55.513Z,84.20
2017-12-17T05:25:21.948Z,83.79
2017-12-17T05:27:49.099Z,83.69
2017-12-17T05:30:15.535Z,83.72
2017-12-17T05:32:41.969Z,83.83
2017-12-17T05:35:08.404Z,83.27
2017-12-17T05:37:34.839Z,83.53
2017-12-17T05:40:01.273Z,83.93
2017-12-17T05:42:27.809Z,84.05
2017-12-17T05:44:54.893Z,84.01
2017-12-17T05:47:21.294Z,83.77
2017-12-17T05:49:47.732Z,82.71
2017-12-17T05:52:14.265Z,83.18
2017-12-17T05:54:40.701Z,83.24
2017-12-17T05:57:07.135Z,83.37
2017-12-17T05:59:33.571Z,83.83
2017-12-17T06:02:00.107Z,84.00
2017-12-17T06:04:26.542Z,83.95
2017-12-17T06:06:52.975Z,84.43
2017-12-17T06:09:19.410Z,84.54
2017-12-17T06:11:45.948Z,84.65
2017-12-17T06:14:12.382Z,84.27
2017-12-17T06:16:38.743Z,84.18
2017-12-17T06:19:05.151Z,83.83
2017-12-17T06:21:31.685Z,83.70
2017-12-17T06:23:58.123Z,83.75
2017-12-17T06:26:24.556Z,83.66
2017-12-17T06:28:50.989Z,83.67
2017-12-17T06:31:17.528Z,84.03
2017-12-17T06:33:43.961Z,84.21
2017-12-17T06:36:10.397Z,84.25
2017-12-17T06:38:36.832Z,84.63
2017-12-17T06:41:03.368Z,84.41
2017-12-17T06:43:30.417Z,85.01
2017-12-17T06:45:56.783Z,84.45
2017-12-17T06:48:23.148Z,84.18
2017-12-17T06:50:49.517Z,84.29
2017-12-17T06:53:15.951Z,84.42
2017-12-17T06:55:42.385Z,84.66
2017-12-17T06:58:08.821Z,84.46
2017-12-17T07:00:35.974Z,84.75
2017-12-17T07:03:02.406Z,85.30
2017-12-17T07:05:28.842Z,85.09
2017-12-17T07:07:55.275Z,84.26
2017-12-17T07:10:21.710Z,84.76
2017-12-17T07:12:48.145Z,84.97
2017-12-17T07:15:14.562Z,84.49
2017-12-17T07:17:41.834Z,83.62
2017-12-17T07:20:08.270Z,84.16
2017-12-17T07:22:34.702Z,83.91
2017-12-17T07:25:01.138Z,84.45
2017-12-17T07:27:27.471Z,84.02
2017-12-17T07:29:53.905Z,84.52
2017-12-17T07:32:20.331Z,84.74
2017-12-17T07:34:47.474Z,85.18
2017-12-17T07:37:13.926Z,85.41
2017-12-17T07:39:40.360Z,85.14
2017-12-17T07:42:06.825Z,84.96
2017-12-17T07:44:33.229Z,83.66
2017-12-17T07:46:59.663Z,83.97
2017-12-17T07:49:26.098Z,84.21
2017-12-17T07:51:53.250Z,84.05
2017-12-17T07:54:19.686Z,83.65
2017-12-17T07:56:46.077Z,83.87
2017-12-17T07:59:12.521Z,84.14
2017-12-17T08:01:38.963Z,84.10
2017-12-17T08:04:05.426Z,84.59
2017-12-17T08:06:31.860Z,83.55
2017-12-17T08:08:59.010Z,83.80
2017-12-17T08:11:25.529Z,83.57
2017-12-17T08:13:51.981Z,83.87
2017-12-17T08:16:18.418Z,84.11
2017-12-17T08:18:44.791Z,85.09
2017-12-17T08:21:11.287Z,83.73
2017-12-17T08:23:37.722Z,83.88
2017-12-17T08:26:04.974Z,84.15
2017-12-17T08:28:31.409Z,82.68
2017-12-17T08:30:57.944Z,82.74
2017-12-17T08:33:24.379Z,83.75
2017-12-17T08:35:50.817Z,83.56
2017-12-17T08:38:17.250Z,83.34
2017-12-17T08:40:43.786Z,83.64
2017-12-17T08:43:10.766Z,83.38
2017-12-17T08:45:37.168Z,83.83
2017-12-17T08:48:03.501Z,83.50
2017-12-17T08:50:30.028Z,84.68
2017-12-17T08:52:56.472Z,84.55
2017-12-17T08:55:22.838Z,84.58
2017-12-17T08:57:49.238Z,84.99
2017-12-17T09:00:16.492Z,84.32
2017-12-17T09:02:42.927Z,83.36
2017-12-17T09:05:09.362Z,82.79
2017-12-17T09:07:35.900Z,83.24
2017-12-17T09:10:02.336Z,83.95
2017-12-17T09:12:28.800Z,83.67
2017-12-17T09:14:55.172Z,83.84
2017-12-17T09:17:22.457Z,83.77
2017-12-17T09:19:48.827Z,83.66
2017-12-17T09:22:15.299Z,84.08
2017-12-17T09:24:41.761Z,83.64
2017-12-17T09:27:08.198Z,84.19
2017-12-17T09:29:34.632Z,83.82
2017-12-17T09:32:01.167Z,83.75
2017-12-17T09:34:28.319Z,83.36
2017-12-17T09:36:54.756Z,82.51
2017-12-17T09:39:21.168Z,82.71
2017-12-17T09:41:47.512Z,83.59
2017-12-17T09:44:13.955Z,83.72
2017-12-17T09:46:40.390Z,83.48
2017-12-17T09:49:06.773Z,83.57
2017-12-17T09:51:33.980Z,84.01
2017-12-17T09:54:00.410Z,84.28
2017-12-17T09:56:26.773Z,83.02
2017-12-17T09:58:53.177Z,83.83
2017-12-17T10:01:19.713Z,83.90
2017-12-17T10:03:46.149Z,84.12
2017-12-17T10:06:12.582Z,83.00
2017-12-17T10:08:39.734Z,83.30
2017-12-17T10:11:06.266Z,83.60
2017-12-17T10:13:32.708Z,83.26
2017-12-17T10:15:59.141Z,83.33
2017-12-17T10:18:25.502Z,83.91
2017-12-17T10:20:52.010Z,83.66
2017-12-17T10:23:18.445Z,84.07
2017-12-17T10:25:45.493Z,83.85
2017-12-17T10:28:11.929Z,82.54
2017-12-17T10:30:38.466Z,83.26
2017-12-17T10:33:04.834Z,83.95
2017-12-17T10:35:31.232Z,84.21
2017-12-17T10:37:57.770Z,83.96
2017-12-17T10:40:24.204Z,83.77
2017-12-17T10:42:51.356Z,83.75
2017-12-17T10:45:17.893Z,83.35
2017-12-17T10:47:44.327Z,82.85
2017-12-17T10:50:10.769Z,82.32
2017-12-17T10:52:37.196Z,82.91
2017-12-17T10:55:03.632Z,82.35
2017-12-17T10:57:30.168Z,82.59
2017-12-17T10:59:57.322Z,82.49
2017-12-17T11:02:23.864Z,81.86
2017-12-17T11:04:50.297Z,81.51
2017-12-17T11:07:16.727Z,81.51
2017-12-17T11:09:43.164Z,81.47
2017-12-17T11:12:09.671Z,81.17
2017-12-17T11:14:36.110Z,81.21
2017-12-17T11:17:03.217Z,82.91
2017-12-17T11:19:29.615Z,83.44
2017-12-17T11:21:56.136Z,83.63
2017-12-17T11:24:22.605Z,83.66
2017-12-17T11:26:49.024Z,84.15
2017-12-17T11:29:15.459Z,84.47
2017-12-17T11:31:41.996Z,84.57
2017-12-17T11:34:09.044Z,85.19
2017-12-17T11:36:35.478Z,84.74
2017-12-17T11:39:01.913Z,85.08
2017-12-17T11:41:28.422Z,85.86
2017-12-17T11:43:54.817Z,86.09
2017-12-17T11:46:21.217Z,86.20
2017-12-17T11:48:47.655Z,86.37
2017-12-17T11:51:14.736Z,86.26
2017-12-17T11:53:41.165Z,86.20
2017-12-17T11:56:07.554Z,86.26
2017-12-17T11:58:33.993Z,86.10
2017-12-17T12:01:00.541Z,85.99
2017-12-17T12:03:26.976Z,85.39
2017-12-17T12:05:53.413Z,86.04
2017-12-17T12:08:20.562Z,86.36
2017-12-17T12:10:47.100Z,87.10
2017-12-17T12:13:13.431Z,87.06
2017-12-17T12:15:39.865Z,87.16
2017-12-17T12:18:06.300Z,86.95
2017-12-17T12:20:32.769Z,86.77
2017-12-17T12:22:59.170Z,87.22
2017-12-17T12:25:26.424Z,86.94
2017-12-17T12:27:52.788Z,86.35
2017-12-17T12:30:19.193Z,85.64
2017-12-17T12:32:45.629Z,86.21
2017-12-17T12:35:12.061Z,86.41
2017-12-17T12:37:38.494Z,86.59
2017-12-17T12:40:04.941Z,86.35
2017-12-17T12:42:32.081Z,86.36
2017-12-17T12:44:58.519Z,85.41
2017-12-17T12:47:24.952Z,86.17
2017-12-17T12:49:51.387Z,85.16
2017-12-17T12:52:17.923Z,85.56
2017-12-17T12:54:44.356Z,85.31
2017-12-17T12:57:10.725Z,85.30
2017-12-17T12:59:37.942Z,85.70
2017-12-17T13:02:04.505Z,85.37
2017-12-17T13:04:30.913Z,85.35
2017-12-17T13:06:57.349Z,85.19
2017-12-17T13:09:23.886Z,85.77
2017-12-17T13:11:50.424Z,84.38
2017-12-17T13:14:16.788Z,85.17
2017-12-17T13:16:44.129Z,85.46
2017-12-17T13:19:10.546Z,85.18
2017-12-17T13:21:37.083Z,85.05
2017-12-17T13:24:03.415Z,85.57
2017-12-17T13:26:29.850Z,85.29
2017-12-17T13:28:56.285Z,84.78
2017-12-17T13:31:22.751Z,85.44
2017-12-17T13:33:49.973Z,85.63
2017-12-17T13:36:16.408Z,86.16
2017-12-17T13:38:42.775Z,87.19
2017-12-17T13:41:09.264Z,86.21
2017-12-17T13:43:35.711Z,85.92
2017-12-17T13:46:02.169Z,86.27
2017-12-17T13:48:28.580Z,86.42
2017-12-17T13:50:55.835Z,86.67
2017-12-17T13:53:22.269Z,86.32
2017-12-17T13:55:48.704Z,86.53
2017-12-17T13:58:15.140Z,85.75
2017-12-17T14:00:41.677Z,86.53
2017-12-17T14:03:08.111Z,85.80
2017-12-17T14:05:34.546Z,86.22
2017-12-17T14:08:01.696Z,87.67
2017-12-17T14:10:28.235Z,88.68
2017-12-17T14:12:54.601Z,90.07
2017-12-17T14:15:21.002Z,90.72
2017-12-17T14:17:47.437Z,90.55
2017-12-17T14:20:13.861Z,91.26
2017-12-17T14:22:40.307Z,91.30
2017-12-17T14:25:07.456Z,92.05
2017-12-17T14:27:33.890Z,92.19
2017-12-17T14:30:00.325Z,92.27
2017-12-17T14:32:26.862Z,92.42
2017-12-17T14:34:53.297Z,92.42
2017-12-17T14:37:19.738Z,92.50
2017-12-17T14:39:46.167Z,92.13
2017-12-17T14:42:13.318Z,92.92
2017-12-17T14:44:39.683Z,93.13
2017-12-17T14:47:06.085Z,92.78
2017-12-17T14:49:32.519Z,92.21
2017-12-17T14:51:59.030Z,91.55
2017-12-17T14:54:25.390Z,92.04
2017-12-17T14:56:51.823Z,91.94
2017-12-17T14:59:18.974Z,91.29
2017-12-17T15:01:45.410Z,91.60
2017-12-17T15:04:11.844Z,92.41
2017-12-17T15:06:38.208Z,92.94
2017-12-17T15:09:04.553Z,92.75
2017-12-17T15:11:31.016Z,91.76
2017-12-17T15:13:57.378Z,91.77
2017-12-17T15:16:24.735Z,91.85
2017-12-17T15:18:51.173Z,90.75
2017-12-17T15:21:17.705Z,90.34
2017-12-17T15:23:44.140Z,90.51
2017-12-17T15:26:10.575Z,89.86
2017-12-17T15:28:37.009Z,90.54
2017-12-17T15:31:03.445Z,90.46
2017-12-17T15:33:30.595Z,90.24
2017-12-17T15:35:57.011Z,90.12
2017-12-17T15:38:23.401Z,90.38
2017-12-17T15:40:49.870Z,90.72
2017-12-17T15:43:16.312Z,90.63
2017-12-17T15:45:42.698Z,90.33
2017-12-17T15:48:09.101Z,90.80
2017-12-17T15:50:36.355Z,91.05
2017-12-17T15:53:02.720Z,90.75
2017-12-17T15:55:29.122Z,90.93
2017-12-17T15:57:55.538Z,91.75
2017-12-17T16:00:21.993Z,92.02
2017-12-17T16:02:48.397Z,91.25
2017-12-17T16:05:14.859Z,91.37
2017-12-17T16:07:42.013Z,90.90
2017-12-17T16:10:08.446Z,91.09
2017-12-17T16:12:34.881Z,91.32
2017-12-17T16:15:01.315Z,91.67
2017-12-17T16:17:27.855Z,91.60
2017-12-17T16:19:54.289Z,90.91
2017-12-17T16:22:20.752Z,91.14
2017-12-17T16:24:47.873Z,91.29
2017-12-17T16:27:14.308Z,90.94
2017-12-17T16:29:40.674Z,90.22
2017-12-17T16:32:07.177Z,90.97
2017-12-17T16:34:33.612Z,91.08
2017-12-17T16:37:00.136Z,91.00
2017-12-17T16:39:26.584Z,90.94
2017-12-17T16:41:53.734Z,90.74
2017-12-17T16:44:20.170Z,90.01
2017-12-17T16:46:46.607Z,88.83
2017-12-17T16:49:13.041Z,89.16
2017-12-17T16:51:39.505Z,90.19
2017-12-17T16:54:05.877Z,90.19
2017-12-17T16:56:32.320Z,90.53
2017-12-17T16:58:59.389Z,90.23
2017-12-17T17:01:25.931Z,90.22
2017-12-17T17:03:52.374Z,90.43
2017-12-17T17:06:18.729Z,90.35
2017-12-17T17:08:45.131Z,89.96
2017-12-17T17:11:11.670Z,90.04
2017-12-17T17:13:38.102Z,89.65
2017-12-17T17:16:05.355Z,89.87
2017-12-17T17:18:31.795Z,89.96
2017-12-17T17:20:58.328Z,90.09
2017-12-17T17:23:24.693Z,89.90
2017-12-17T17:25:51.076Z,90.04
2017-12-17T17:28:17.490Z,90.53
2017-12-17T17:30:43.931Z,90.40
2017-12-17T17:33:11.123Z,90.24
2017-12-17T17:35:37.551Z,90.17
2017-12-17T17:38:03.959Z,90.14
2017-12-17T17:40:30.400Z,90.44
2017-12-17T17:42:56.854Z,90.65
2017-12-17T17:45:23.289Z,90.97
2017-12-17T17:47:49.802Z,90.95
2017-12-17T17:50:16.843Z,90.08
2017-12-17T17:52:43.310Z,90.18
2017-12-17T17:55:09.827Z,89.94
2017-12-17T17:57:36.280Z,89.57
2017-12-17T18:00:02.645Z,90.19
2017-12-17T18:02:29.150Z,90.18
2017-12-17T18:04:55.585Z,89.95
2017-12-17T18:07:22.839Z,89.80
2017-12-17T18:09:49.274Z,89.54
2017-12-17T18:12:15.810Z,89.26
2017-12-17T18:14:42.244Z,89.23
2017-12-17T18:17:08.680Z,89.07
2017-12-17T18:19:35.114Z,89.71
2017-12-17T18:22:01.640Z,89.46
2017-12-17T18:24:28.733Z,89.71
2017-12-17T18:26:55.122Z,89.87
2017-12-17T18:29:21.570Z,90.41
2017-12-17T18:31:48.107Z,89.99
2017-12-17T18:34:14.523Z,90.36
2017-12-17T18:36:40.978Z,90.58
2017-12-17T18:39:07.381Z,90.46
2017-12-17T18:41:34.568Z,89.62
2017-12-17T18:44:00.997Z,90.15
2017-12-17T18:46:27.309Z,89.80
2017-12-17T18:48:53.750Z,90.17
2017-12-17T18:51:20.300Z,90.26
2017-12-17T18:53:46.669Z,90.50
2017-12-17T18:56:13.067Z,90.63
2017-12-17T18:58:44.068Z,90.59
2017-12-17T19:01:10.556Z,90.24
2017-12-17T19:03:36.995Z,90.02
2017-12-17T19:06:03.311Z,90.15
2017-12-17T19:08:30.671Z,90.52
2017-12-17T19:10:57.206Z,90.33
2017-12-17T19:13:23.640Z,90.56
2017-12-17T19:15:50.080Z,91.01
2017-12-17T19:18:16.508Z,89.93
2017-12-17T19:20:43.046Z,90.74
2017-12-17T19:23:09.367Z,90.55
2017-12-17T19:25:36.603Z,91.00
2017-12-17T19:28:03.082Z,90.89
2017-12-17T19:30:29.586Z,90.99
2017-12-17T19:32:56.038Z,90.78
2017-12-17T19:35:22.369Z,90.73
2017-12-17T19:37:48.813Z,90.70
2017-12-17T19:40:15.241Z,90.93
2017-12-17T19:42:42.395Z,90.49
2017-12-17T19:45:08.826Z,90.93
2017-12-17T19:47:35.236Z,90.10
2017-12-17T19:50:01.672Z,89.94
2017-12-17T19:52:28.116Z,90.67
2017-12-17T19:54:54.564Z,90.55
2017-12-17T19:57:20.999Z,89.47
2017-12-17T19:59:48.150Z,89.67
2017-12-17T20:02:14.621Z,89.94
2017-12-17T20:04:41.082Z,90.74
2017-12-17T20:07:07.441Z,90.99
2017-12-17T20:09:33.888Z,90.70
2017-12-17T20:12:00.399Z,91.01
2017-12-17T20:14:26.841Z,91.10
2017-12-17T20:16:54.013Z,90.62
2017-12-17T20:19:20.446Z,90.43
2017-12-17T20:21:46.967Z,90.69
2017-12-17T20:24:13.316Z,90.78
2017-12-17T20:26:39.750Z,91.17
2017-12-17T20:29:06.185Z,91.21
2017-12-17T20:31:32.665Z,91.06
2017-12-17T20:33:59.772Z,90.11
2017-12-17T20:36:26.206Z,90.24
2017-12-17T20:38:52.539Z,90.35
2017-12-17T20:41:19.077Z,89.58
2017-12-17T20:43:45.536Z,90.19
2017-12-17T20:46:12.047Z,90.65
2017-12-17T20:48:38.420Z,89.94
2017-12-17T20:51:05.636Z,89.42
2017-12-17T20:53:32.170Z,89.95
2017-12-17T20:55:58.605Z,89.95
2017-12-17T20:58:25.042Z,90.00
2017-12-17T21:00:51.577Z,90.32
2017-12-17T21:03:18.011Z,90.58
2017-12-17T21:05:44.445Z,90.70
2017-12-17T21:08:11.596Z,90.98
2017-12-17T21:10:38.134Z,90.04
2017-12-17T21:13:04.570Z,90.13
2017-12-17T21:15:31.002Z,90.52
2017-12-17T21:17:57.335Z,90.12
2017-12-17T21:20:23.748Z,90.25
2017-12-17T21:22:50.191Z,89.86
2017-12-17T21:25:17.356Z,89.79
2017-12-17T21:27:43.773Z,90.19
2017-12-17T21:30:10.227Z,90.09
2017-12-17T21:32:36.589Z,88.88
2017-12-17T21:35:02.993Z,89.42
2017-12-17T21:37:29.324Z,89.76
2017-12-17T21:39:55.759Z,89.68
2017-12-17T21:42:22.913Z,89.58
2017-12-17T21:44:49.347Z,89.75
2017-12-17T21:47:15.782Z,90.01
2017-12-17T21:49:42.215Z,90.07
2017-12-17T21:52:08.681Z,90.17
2017-12-17T21:54:35.134Z,90.33
2017-12-17T21:57:01.518Z,90.44
2017-12-17T21:59:28.773Z,90.36
2017-12-17T22:01:55.287Z,90.56
2017-12-17T22:04:21.744Z,90.57
2017-12-17T22:06:48.144Z,88.51
2017-12-17T22:09:14.614Z,88.27
2017-12-17T22:11:41.130Z,88.25
2017-12-17T22:14:07.686Z,88.51
2017-12-17T22:16:34.669Z,88.66
2017-12-17T22:19:01.071Z,88.70
2017-12-17T22:21:27.607Z,88.28
2017-12-17T22:23:54.040Z,88.23
2017-12-17T22:26:20.474Z,88.60
2017-12-17T22:28:46.909Z,88.43
2017-12-17T22:31:13.341Z,88.73
2017-12-17T22:33:40.597Z,89.07
2017-12-17T22:36:07.032Z,89.41
2017-12-17T22:38:33.467Z,89.72
2017-12-17T22:41:00.005Z,89.90
2017-12-17T22:43:26.441Z,89.62
2017-12-17T22:45:52.877Z,89.83
2017-12-17T22:48:19.307Z,89.63
2017-12-17T22:50:46.458Z,89.52
2017-12-17T22:53:12.894Z,89.69
2017-12-17T22:55:39.303Z,89.60
2017-12-17T22:58:05.762Z,89.72
2017-12-17T23:00:32.300Z,89.44
2017-12-17T23:02:58.699Z,88.82
2017-12-17T23:05:25.027Z,89.19
2017-12-17T23:07:52.294Z,89.59
2017-12-17T23:10:18.808Z,89.30
2017-12-17T23:12:45.155Z,89.39
2017-12-17T23:15:11.594Z,89.45
2017-12-17T23:17:38.105Z,89.29
2017-12-17T23:20:04.494Z,89.90
2017-12-17T23:22:30.929Z,89.51
2017-12-17T23:24:58.063Z,88.83
2017-12-17T23:27:24.444Z,88.84
2017-12-17T23:29:50.846Z,89.04
2017-12-17T23:32:17.282Z,89.09
2017-12-17T23:34:43.715Z,88.76
2017-12-17T23:37:10.151Z,88.81
2017-12-17T23:39:36.586Z,89.03
2017-12-17T23:42:03.839Z,89.21
2017-12-17T23:44:30.273Z,89.33
2017-12-17T23:46:56.642Z,89.36
2017-12-17T23:49:23.042Z,89.54
2017-12-17T23:51:49.581Z,88.93
2017-12-17T23:54:16.013Z,88.80
2017-12-17T23:56:42.450Z,88.75
2017-12-17T23:59:09.576Z,89.12
